Time;durP1;ratioP1;P1;durP2;ratioP2;P2;SDS_P1;SDS_P2;PMS_P1;PMS_P2;Temp;Humidity;BMP_temperature;BMP_pressure;BME280_temperature;BME280_humidity;BME280_pressure;Samples;Min_cycle;Max_cycle;Signal;HPM_P1;HPM_P2
2022/08/13 00:00:59;;;;;;;2.70;2.50;;;20.00;49.30;;;;;;5089074;28;20956;-57
2022/08/13 00:03:28;;;;;;;4.30;2.60;;;20.00;49.40;;;;;;5094568;28;20500;-56
2022/08/13 00:05:55;;;;;;;3.50;3.20;;;20.00;49.60;;;;;;5092304;28;20464;-57
2022/08/13 00:08:26;;;;;;;5.30;2.87;;;20.00;49.70;;;;;;5089576;28;20572;-55
2022/08/13 00:10:53;;;;;;;3.83;2.70;;;19.90;49.80;;;;;;5092079;28;20537;-56
2022/08/13 00:13:24;;;;;;;3.07;2.77;;;19.90;50.00;;;;;;5093186;28;20549;-57
2022/08/13 00:15:51;;;;;;;7.77;3.33;;;19.90;50.30;;;;;;5091977;28;20800;-57
2022/08/13 00:18:22;;;;;;;4.30;2.90;;;19.80;50.50;;;;;;5092882;28;20489;-57
2022/08/13 00:20:51;;;;;;;5.93;3.20;;;19.70;50.60;;;;;;5086948;28;20458;-56
2022/08/13 00:23:20;;;;;;;7.80;3.40;;;19.70;50.80;;;;;;5089266;28;20569;-56
2022/08/13 00:25:50;;;;;;;4.03;3.50;;;19.60;51.00;;;;;;5090674;28;20541;-56
2022/08/13 00:28:19;;;;;;;6.20;3.80;;;19.60;51.20;;;;;;5097502;28;20446;-56
2022/08/13 00:30:48;;;;;;;4.40;3.00;;;19.60;51.50;;;;;;5096495;28;20489;-57
2022/08/13 00:33:18;;;;;;;4.77;3.00;;;19.50;51.60;;;;;;5072571;28;20586;-57
2022/08/13 00:35:47;;;;;;;3.00;2.70;;;19.50;51.80;;;;;;5092705;28;20844;-54
2022/08/13 00:38:17;;;;;;;6.37;3.57;;;19.40;51.80;;;;;;5096836;28;20518;-57
2022/08/13 00:40:46;;;;;;;5.23;3.33;;;19.40;52.10;;;;;;5092196;28;20462;-56
2022/08/13 00:43:14;;;;;;;4.17;3.17;;;19.40;52.20;;;;;;5093467;28;20561;-57
2022/08/13 00:45:42;;;;;;;3.63;2.90;;;19.40;52.30;;;;;;5094366;28;20957;-56
2022/08/13 00:50:58;;;;;;;5.30;3.83;;;19.40;52.40;;;;;;5095940;28;20511;-56
2022/08/13 00:53:26;;;;;;;6.77;3.60;;;19.40;52.40;;;;;;5096884;28;20474;-56
2022/08/13 00:55:55;;;;;;;4.43;3.70;;;19.30;52.40;;;;;;5107981;28;20498;-56
2022/08/13 00:58:24;;;;;;;3.63;3.20;;;19.30;52.60;;;;;;5108487;28;20451;-55
2022/08/13 01:00:53;;;;;;;3.30;2.60;;;19.20;52.70;;;;;;5106257;28;20984;-56
2022/08/13 01:03:22;;;;;;;5.50;2.97;;;19.20;52.80;;;;;;5074353;28;20571;-55
2022/08/13 01:05:50;;;;;;;3.93;2.77;;;19.20;52.90;;;;;;5090388;28;20537;-57
2022/08/13 01:08:19;;;;;;;3.40;2.90;;;19.20;53.00;;;;;;5100488;28;20472;-57
2022/08/13 01:10:48;;;;;;;4.17;3.30;;;19.20;53.10;;;;;;5098008;28;20462;-57
2022/08/13 01:13:17;;;;;;;4.70;3.30;;;19.20;53.30;;;;;;5062440;28;21007;-58
2022/08/13 01:15:46;;;;;;;3.17;2.80;;;19.10;53.30;;;;;;5095734;28;20512;-56
2022/08/13 01:18:14;;;;;;;4.33;2.70;;;19.10;53.50;;;;;;5096821;28;20504;-57
2022/08/13 01:20:47;;;;;;;3.30;3.00;;;19.10;53.60;;;;;;5094902;28;20462;-56
2022/08/13 01:23:18;;;;;;;5.30;3.17;;;19.10;53.70;;;;;;5096722;28;21023;-56
2022/08/13 01:25:46;;;;;;;3.93;3.27;;;19.00;53.80;;;;;;5093851;28;20490;-57
2022/08/13 01:28:14;;;;;;;12.83;3.47;;;19.00;53.90;;;;;;5092959;28;20462;-57
2022/08/13 01:30:46;;;;;;;6.50;3.60;;;18.90;53.80;;;;;;5093882;28;20515;-57
2022/08/13 01:33:17;;;;;;;3.70;2.80;;;18.90;53.90;;;;;;5082309;28;20482;-57
2022/08/13 01:35:44;;;;;;;3.17;2.87;;;18.90;54.10;;;;;;5088010;28;20594;-56
2022/08/13 01:38:12;;;;;;;6.03;3.13;;;18.90;54.20;;;;;;5083471;28;20536;-56
2022/08/13 01:40:40;;;;;;;4.27;3.23;;;18.80;54.30;;;;;;5086049;28;20554;-62
2022/08/13 01:43:08;;;;;;;6.17;2.80;;;18.80;54.50;;;;;;5055859;28;20535;-56
2022/08/13 01:45:35;;;;;;;4.27;3.17;;;18.80;54.70;;;;;;5078770;28;20458;-55
2022/08/13 01:50:48;;;;;;;4.10;3.70;;;18.70;55.10;;;;;;5094667;28;20465;-56
2022/08/13 01:53:18;;;;;;;6.30;3.17;;;18.70;55.40;;;;;;5089481;28;20550;-56
2022/08/13 01:55:48;;;;;;;3.73;2.70;;;18.70;55.70;;;;;;5094078;28;20489;-56
2022/08/13 01:58:19;;;;;;;4.10;2.87;;;18.60;55.70;;;;;;5095558;28;20949;-57
2022/08/13 02:00:49;;;;;;;3.87;3.53;;;18.60;55.80;;;;;;5087200;28;20490;-56
2022/08/13 02:03:19;;;;;;;3.57;2.97;;;18.60;56.00;;;;;;5055085;28;20535;-57
2022/08/13 02:05:47;;;;;;;6.07;3.30;;;18.50;56.00;;;;;;5087273;28;20455;-58
2022/08/13 02:08:19;;;;;;;4.20;2.73;;;18.50;56.10;;;;;;5096034;28;20500;-56
2022/08/13 02:10:49;;;;;;;2.77;2.43;;;18.50;56.10;;;;;;5095317;28;20433;-56
2022/08/13 02:13:17;;;;;;;3.40;3.10;;;18.50;56.20;;;;;;5090420;28;20466;-56
2022/08/13 02:15:46;;;;;;;4.53;2.37;;;18.50;56.20;;;;;;5092944;28;20549;-56
2022/08/13 02:18:17;;;;;;;4.00;2.70;;;18.50;56.20;;;;;;5094947;28;20458;-56
2022/08/13 02:20:46;;;;;;;5.57;2.60;;;18.50;56.30;;;;;;5092463;28;20453;-58
2022/08/13 02:23:19;;;;;;;3.10;2.80;;;18.50;56.30;;;;;;5095334;28;20545;-56
2022/08/13 02:25:50;;;;;;;2.83;2.50;;;18.40;56.30;;;;;;5085558;28;20516;-58
2022/08/13 02:28:19;;;;;;;4.33;3.27;;;18.40;56.60;;;;;;5054466;28;20924;-59
2022/08/13 02:30:47;;;;;;;3.70;3.37;;;18.30;56.80;;;;;;5092276;28;20443;-61
2022/08/13 02:33:15;;;;;;;4.13;2.87;;;18.30;57.10;;;;;;5081860;28;20889;-56
2022/08/13 02:35:44;;;;;;;5.03;3.10;;;18.30;57.00;;;;;;5087248;28;20569;-56
2022/08/13 02:38:12;;;;;;;3.00;2.80;;;18.30;57.10;;;;;;5093338;28;20462;-56
2022/08/13 02:43:26;;;;;;;3.50;2.83;;;18.30;57.50;;;;;;5109591;28;20469;-56
2022/08/13 02:45:54;;;;;;;4.43;3.00;;;18.30;57.70;;;;;;5098155;28;20542;-56
2022/08/13 02:48:23;;;;;;;4.90;3.13;;;18.30;57.90;;;;;;5090991;28;20458;-57
2022/08/13 02:50:51;;;;;;;5.20;3.30;;;18.30;58.10;;;;;;5084476;28;20546;-55
2022/08/13 02:53:19;;;;;;;3.10;2.80;;;18.20;58.10;;;;;;5089191;28;20557;-57
2022/08/13 02:55:48;;;;;;;5.90;3.20;;;18.20;58.30;;;;;;5092407;28;20942;-57
2022/08/13 02:58:16;;;;;;;3.90;3.00;;;18.20;58.60;;;;;;5093383;28;20465;-57
2022/08/13 03:00:48;;;;;;;4.33;2.90;;;18.10;58.80;;;;;;5089916;28;20553;-58
2022/08/13 03:03:17;;;;;;;5.57;3.47;;;18.10;59.70;;;;;;5091972;28;20556;-57
2022/08/13 03:05:45;;;;;;;3.60;2.57;;;18.10;59.40;;;;;;5090452;28;20485;-55
2022/08/13 03:08:12;;;;;;;4.00;2.83;;;18.00;59.40;;;;;;5090991;28;20468;-57
2022/08/13 03:10:41;;;;;;;4.10;2.93;;;18.00;59.70;;;;;;5090643;28;20826;-55
2022/08/13 03:13:16;;;;;;;4.57;2.97;;;17.90;59.90;;;;;;5093515;28;20571;-56
2022/08/13 03:15:46;;;;;;;5.17;3.20;;;17.90;60.10;;;;;;5092465;28;20519;-57
2022/08/13 03:18:13;;;;;;;3.30;2.97;;;17.90;60.40;;;;;;5092808;28;20974;-56
2022/08/13 03:20:41;;;;;;;6.70;3.10;;;17.90;60.70;;;;;;5094288;28;20529;-55
2022/08/13 03:23:09;;;;;;;3.60;3.30;;;17.80;60.80;;;;;;5087782;28;20482;-56
2022/08/13 03:25:37;;;;;;;6.23;3.60;;;17.80;61.10;;;;;;5086848;28;20537;-56
2022/08/13 03:28:06;;;;;;;9.80;2.83;;;17.80;61.30;;;;;;5092134;28;20657;-56
2022/08/13 03:30:34;;;;;;;3.90;3.13;;;17.70;61.50;;;;;;5093775;28;20533;-57
2022/08/13 03:33:07;;;;;;;5.67;3.00;;;17.70;61.80;;;;;;5087987;28;21033;-57
2022/08/13 03:35:37;;;;;;;7.20;3.37;;;17.70;61.80;;;;;;5082060;28;20517;-60
2022/08/13 03:38:06;;;;;;;3.20;2.90;;;17.70;61.90;;;;;;5092093;28;20458;-57
2022/08/13 03:43:15;;;;;;;9.73;3.33;;;17.70;62.10;;;;;;5086207;28;20912;-57
2022/08/13 03:45:43;;;;;;;2.83;2.63;;;17.70;62.20;;;;;;5093483;28;20489;-57
2022/08/13 03:48:13;;;;;;;3.17;2.87;;;17.70;62.30;;;;;;5089803;28;20461;-56
2022/08/13 03:50:40;;;;;;;3.40;3.10;;;17.70;62.50;;;;;;5092353;28;20465;-56
2022/08/13 03:53:08;;;;;;;4.07;3.20;;;17.70;62.80;;;;;;5088352;28;20471;-56
2022/08/13 03:55:37;;;;;;;3.97;3.67;;;17.60;62.80;;;;;;5091780;28;20489;-57
2022/08/13 03:58:05;;;;;;;4.90;3.27;;;17.60;63.10;;;;;;5085235;28;20483;-57
2022/08/13 04:00:33;;;;;;;3.70;3.40;;;17.60;63.40;;;;;;5087425;28;20608;-55
2022/08/13 04:03:02;;;;;;;3.77;3.27;;;17.60;63.50;;;;;;5086940;28;21131;-56
2022/08/13 04:05:31;;;;;;;3.30;2.93;;;17.60;63.60;;;;;;5092259;28;20531;-55
2022/08/13 04:10:08;;;;;;;3.83;3.43;;;17.60;63.40;;;;;;5070752;27;20639;-56
2022/08/13 04:12:36;;;;;;;4.33;3.23;;;17.60;63.90;;;;;;5069865;28;20802;-56
2022/08/13 04:15:05;;;;;;;3.50;3.30;;;17.50;64.00;;;;;;5069050;28;20490;-56
2022/08/13 04:17:33;;;;;;;3.60;2.77;;;17.50;64.20;;;;;;5068309;28;20513;-56
2022/08/13 04:20:02;;;;;;;5.03;3.50;;;17.50;64.60;;;;;;5061597;28;20998;-56
2022/08/13 04:22:29;;;;;;;4.73;3.30;;;17.50;64.80;;;;;;5050742;28;20448;-55
2022/08/13 04:24:58;;;;;;;3.80;3.50;;;17.50;64.90;;;;;;5070141;28;20651;-56
2022/08/13 04:27:27;;;;;;;3.70;3.20;;;17.60;65.00;;;;;;5069261;28;20554;-56
2022/08/13 04:29:55;;;;;;;3.93;3.60;;;17.70;65.00;;;;;;5068486;28;20570;-57
2022/08/13 04:32:23;;;;;;;4.10;3.70;;;17.80;64.90;;;;;;5059526;28;20460;-56
2022/08/13 04:34:50;;;;;;;4.40;3.40;;;18.00;64.60;;;;;;5057731;28;20459;-56
2022/08/13 04:37:18;;;;;;;3.63;3.33;;;18.20;64.10;;;;;;5069911;28;20938;-56
2022/08/13 04:39:45;;;;;;;4.43;3.37;;;18.40;63.50;;;;;;5069415;28;20894;-56
2022/08/13 04:42:13;;;;;;;3.80;3.43;;;18.60;63.10;;;;;;5068540;28;20868;-56
2022/08/13 04:44:41;;;;;;;5.67;3.97;;;18.70;62.60;;;;;;5068205;28;20502;-56
2022/08/13 04:47:09;;;;;;;3.70;3.40;;;18.90;62.00;;;;;;5069800;28;20966;-56
2022/08/13 04:49:36;;;;;;;5.07;3.10;;;19.20;61.40;;;;;;5074881;28;20927;-56
2022/08/13 04:52:03;;;;;;;4.17;3.63;;;19.40;60.60;;;;;;5075389;28;20475;-55
2022/08/13 04:54:31;;;;;;;3.20;3.00;;;19.60;60.20;;;;;;5068955;28;20570;-56
2022/08/13 04:56:58;;;;;;;3.70;3.33;;;19.70;59.70;;;;;;5068748;28;20550;-56
2022/08/13 04:59:25;;;;;;;3.97;3.67;;;19.90;59.30;;;;;;5067683;28;20456;-54
2022/08/13 05:01:55;;;;;;;5.67;3.77;;;20.00;58.60;;;;;;5060215;28;20468;-57
2022/08/13 05:04:23;;;;;;;3.57;3.27;;;20.20;58.10;;;;;;5063622;28;20563;-56
2022/08/13 05:06:51;;;;;;;3.33;3.13;;;20.40;57.60;;;;;;5069218;28;20485;-56
2022/08/13 05:09:19;;;;;;;6.80;3.40;;;20.50;57.00;;;;;;5068411;28;20589;-56
2022/08/13 05:11:46;;;;;;;3.43;3.00;;;20.70;56.60;;;;;;5068738;28;20838;-56
2022/08/13 05:14:13;;;;;;;3.30;3.10;;;20.80;56.00;;;;;;5067525;28;20858;-55
2022/08/13 05:16:41;;;;;;;4.60;3.47;;;20.80;55.60;;;;;;5068107;28;20558;-56
2022/08/13 05:19:10;;;;;;;8.10;3.40;;;20.80;55.40;;;;;;5059105;28;20539;-57
2022/08/13 05:21:37;;;;;;;3.20;3.00;;;20.90;55.10;;;;;;5049351;28;21015;-56
2022/08/13 05:24:05;;;;;;;3.30;3.10;;;21.00;54.80;;;;;;5040756;28;20568;-56
2022/08/13 05:26:32;;;;;;;4.30;3.23;;;21.10;54.50;;;;;;5035985;28;20539;-56
2022/08/13 05:29:04;;;;;;;6.20;3.60;;;21.20;54.20;;;;;;5054645;28;20476;-55
2022/08/13 05:31:33;;;;;;;3.80;3.40;;;21.20;53.90;;;;;;5053730;28;20449;-57
2022/08/13 05:34:03;;;;;;;6.93;3.70;;;21.30;53.80;;;;;;5055721;28;20510;-55
2022/08/13 05:36:31;;;;;;;3.90;3.30;;;21.40;53.60;;;;;;5045983;28;20456;-56
2022/08/13 05:38:59;;;;;;;3.90;3.53;;;21.40;53.20;;;;;;5055721;28;20914;-56
2022/08/13 05:41:27;;;;;;;4.03;3.43;;;21.40;52.90;;;;;;5055962;28;20872;-55
2022/08/13 05:43:55;;;;;;;4.03;3.63;;;21.20;52.80;;;;;;5053613;28;20571;-56
2022/08/13 05:46:23;;;;;;;4.00;3.07;;;21.00;53.00;;;;;;5054656;28;20538;-56
2022/08/13 05:48:57;;;;;;;4.00;3.70;;;20.80;53.40;;;;;;5050835;28;20484;-59
2022/08/13 05:51:25;;;;;;;3.73;3.43;;;20.70;53.70;;;;;;5043056;28;20436;-56
2022/08/13 05:53:55;;;;;;;4.47;3.47;;;20.70;53.70;;;;;;5055393;28;20467;-56
2022/08/13 05:56:23;;;;;;;4.67;3.57;;;20.70;53.70;;;;;;5043178;28;20441;-55
2022/08/13 05:58:50;;;;;;;4.10;3.47;;;20.80;53.80;;;;;;5035914;28;20459;-56
2022/08/13 06:04:02;;;;;;;3.80;3.50;;;20.80;53.50;;;;;;5035873;28;21029;-56
2022/08/13 06:06:29;;;;;;;4.17;3.77;;;20.90;53.50;;;;;;5054686;28;20450;-56
2022/08/13 06:08:58;;;;;;;7.23;4.17;;;20.90;53.30;;;;;;5046025;28;20498;-56
2022/08/13 06:11:26;;;;;;;5.40;3.10;;;20.90;53.20;;;;;;5047731;28;20539;-55
2022/08/13 06:13:54;;;;;;;4.20;3.50;;;20.90;53.20;;;;;;5043646;28;20678;-55
2022/08/13 06:16:21;;;;;;;4.30;3.30;;;21.00;53.30;;;;;;5035344;28;20526;-56
2022/08/13 06:18:49;;;;;;;3.10;2.90;;;21.00;53.20;;;;;;5042231;28;20881;-56
2022/08/13 06:21:18;;;;;;;3.33;3.13;;;21.00;53.00;;;;;;5035976;28;21034;-56
2022/08/13 06:23:48;;;;;;;4.00;3.60;;;21.00;52.90;;;;;;5053041;28;20513;-56
2022/08/13 06:26:19;;;;;;;7.83;3.50;;;21.10;52.90;;;;;;5052797;28;20472;-56
2022/08/13 06:28:47;;;;;;;3.10;2.90;;;21.10;52.80;;;;;;5054340;28;20535;-56
2022/08/13 06:31:17;;;;;;;3.43;3.13;;;21.10;52.80;;;;;;5054090;28;20473;-55
2022/08/13 06:33:46;;;;;;;4.33;3.50;;;21.20;52.90;;;;;;5053835;28;20487;-56
2022/08/13 06:36:16;;;;;;;3.40;3.10;;;21.30;52.90;;;;;;5048852;28;20458;-58
2022/08/13 06:38:45;;;;;;;4.37;3.30;;;21.40;52.70;;;;;;5047466;28;20488;-56
2022/08/13 06:41:13;;;;;;;4.80;3.60;;;21.60;52.60;;;;;;5044994;28;20845;-58
2022/08/13 06:43:44;;;;;;;4.30;3.40;;;21.70;52.40;;;;;;5049842;28;20465;-53
2022/08/13 06:46:13;;;;;;;3.80;3.50;;;21.80;52.30;;;;;;5038545;28;20529;-55
2022/08/13 06:48:41;;;;;;;3.60;3.30;;;21.90;52.20;;;;;;5039254;28;20486;-54
2022/08/13 06:51:10;;;;;;;6.03;3.60;;;22.00;52.10;;;;;;5061163;28;20467;-55
2022/08/13 06:53:39;;;;;;;4.07;3.67;;;22.00;51.80;;;;;;5061909;28;20493;-57
2022/08/13 06:56:08;;;;;;;5.50;3.73;;;22.10;52.30;;;;;;5053829;28;20552;-56
2022/08/13 06:58:36;;;;;;;4.33;3.10;;;22.30;51.50;;;;;;5053880;28;20512;-55
2022/08/13 07:01:05;;;;;;;6.10;3.60;;;22.40;51.20;;;;;;5053657;28;20543;-55
2022/08/13 07:03:35;;;;;;;6.53;3.80;;;22.50;50.80;;;;;;5052752;28;20570;-56
2022/08/13 07:06:02;;;;;;;5.90;3.53;;;22.60;50.60;;;;;;5046030;28;21016;-56
2022/08/13 07:08:31;;;;;;;3.47;3.17;;;22.70;50.30;;;;;;5053462;28;20501;-56
2022/08/13 07:13:44;;;;;;;5.20;4.00;;;22.90;49.90;;;;;;5045004;28;20860;-56
2022/08/13 07:16:16;;;;;;;4.93;3.27;;;23.10;49.70;;;;;;5051926;28;20546;-56
2022/08/13 07:18:43;;;;;;;5.20;3.47;;;23.20;49.50;;;;;;5053302;28;20899;-56
2022/08/13 07:21:13;;;;;;;5.10;3.23;;;23.30;49.30;;;;;;5052962;28;21017;-56
2022/08/13 07:23:42;;;;;;;3.17;2.97;;;23.40;49.00;;;;;;5052219;28;20496;-55
2022/08/13 07:26:12;;;;;;;4.20;3.90;;;23.50;48.80;;;;;;5054529;28;21006;-56
2022/08/13 07:28:40;;;;;;;3.40;3.10;;;23.60;48.70;;;;;;5053313;28;20942;-56
2022/08/13 07:31:09;;;;;;;5.37;3.53;;;23.70;48.40;;;;;;5053487;28;20446;-55
2022/08/13 07:33:39;;;;;;;4.33;3.77;;;23.90;48.20;;;;;;5053360;28;20460;-56
2022/08/13 07:36:08;;;;;;;3.50;3.30;;;24.00;48.00;;;;;;5053634;28;20435;-56
2022/08/13 07:38:36;;;;;;;4.73;3.40;;;24.10;47.80;;;;;;5052727;28;20515;-56
2022/08/13 07:41:04;;;;;;;3.83;3.40;;;24.30;47.70;;;;;;5052343;28;20483;-57
2022/08/13 07:43:39;;;;;;;3.50;3.17;;;24.40;47.70;;;;;;5053268;28;20504;-55
2022/08/13 07:46:10;;;;;;;4.73;3.10;;;24.40;47.40;;;;;;5052628;28;20463;-57
2022/08/13 07:48:40;;;;;;;3.70;3.40;;;24.60;47.40;;;;;;5053267;28;20523;-56
2022/08/13 07:51:19;;;;;;;5.40;3.57;;;24.70;47.20;;;;;;5052960;28;21082;-57
2022/08/13 07:53:47;;;;;;;3.50;3.20;;;24.90;47.20;;;;;;5052814;28;20470;-58
2022/08/13 07:56:19;;;;;;;3.40;3.10;;;25.00;47.00;;;;;;5041121;28;20467;-57
2022/08/13 07:58:46;;;;;;;3.47;3.17;;;25.10;46.80;;;;;;5034114;28;20542;-56
2022/08/13 08:01:14;;;;;;;4.17;3.20;;;25.30;46.50;;;;;;5042483;28;20529;-57
2022/08/13 08:03:46;;;;;;;3.63;3.07;;;25.40;46.30;;;;;;5034254;28;20480;-57
2022/08/13 08:06:17;;;;;;;3.97;3.10;;;25.50;46.00;;;;;;5048058;28;20466;-57
2022/08/13 08:08:46;;;;;;;3.77;3.30;;;25.60;45.80;;;;;;5053641;28;20464;-56
2022/08/13 08:12:30;;;;;;;6.07;4.17;;;25.60;45.70;;;;;;5056110;28;20569;-56
2022/08/13 08:14:01;;;;;;;4.63;3.20;;;25.70;45.60;;;;;;5054557;28;20982;-56
2022/08/13 08:16:30;;;;;;;3.87;3.40;;;25.80;45.30;;;;;;5047050;28;20542;-57
2022/08/13 08:19:00;;;;;;;5.00;3.47;;;26.00;45.20;;;;;;5033579;28;20879;-56
2022/08/13 08:21:28;;;;;;;6.03;3.10;;;26.10;45.00;;;;;;5033197;28;20454;-57
2022/08/13 08:23:58;;;;;;;4.53;3.30;;;26.30;44.80;;;;;;5032832;28;20536;-56
2022/08/13 08:26:27;;;;;;;4.67;3.57;;;26.40;44.40;;;;;;5033286;28;20449;-56
2022/08/13 08:28:55;;;;;;;5.07;3.43;;;26.50;44.30;;;;;;5032908;28;20836;-57
2022/08/13 08:31:22;;;;;;;4.83;3.47;;;26.50;44.20;;;;;;5032511;28;20439;-56
2022/08/13 08:33:51;;;;;;;3.60;3.30;;;26.60;44.10;;;;;;5032394;28;20564;-56
2022/08/13 08:36:19;;;;;;;9.40;3.20;;;26.70;44.10;;;;;;5036892;28;20991;-56
2022/08/13 08:44:23;;;;;;;4.97;3.60;;;26.90;43.70;;;;;;5032521;28;20935;-57
2022/08/13 08:46:52;;;;;;;4.23;3.43;;;27.00;43.70;;;;;;5037014;28;21004;-57
2022/08/13 08:49:22;;;;;;;8.53;3.60;;;27.10;43.70;;;;;;5032438;28;20451;-58
2022/08/13 08:51:52;;;;;;;5.80;3.70;;;27.20;43.60;;;;;;5032198;28;20443;-57
2022/08/13 08:54:21;;;;;;;4.10;3.60;;;27.30;43.50;;;;;;5032651;28;20554;-57
2022/08/13 08:56:49;;;;;;;4.50;3.60;;;27.40;43.40;;;;;;5036059;28;20882;-57
2022/08/13 08:59:17;;;;;;;3.07;2.87;;;27.50;43.30;;;;;;5035967;28;20446;-56
2022/08/13 09:01:45;;;;;;;5.53;3.53;;;27.60;43.30;;;;;;5035930;28;20515;-57
2022/08/13 09:04:14;;;;;;;4.50;4.10;;;27.70;43.10;;;;;;5050349;28;20494;-57
2022/08/13 09:06:43;;;;;;;5.20;3.47;;;27.90;43.00;;;;;;5048548;28;20471;-58
2022/08/13 09:09:13;;;;;;;4.50;4.10;;;28.00;42.80;;;;;;5036615;28;21015;-56
2022/08/13 09:11:42;;;;;;;3.97;3.67;;;28.10;42.60;;;;;;5036136;28;20438;-57
2022/08/13 09:14:12;;;;;;;4.60;4.20;;;28.20;42.40;;;;;;5036120;28;20468;-57
2022/08/13 09:16:40;;;;;;;7.90;4.43;;;28.40;42.20;;;;;;5035804;28;20430;-57
2022/08/13 09:19:09;;;;;;;4.17;3.77;;;28.40;42.10;;;;;;5035983;28;20476;-58
2022/08/13 09:21:44;;;;;;;4.17;3.70;;;28.60;42.00;;;;;;5035854;28;20590;-57
2022/08/13 09:24:14;;;;;;;5.60;4.00;;;28.80;41.60;;;;;;5035549;28;20574;-57
2022/08/13 09:26:45;;;;;;;4.50;4.03;;;28.90;41.20;;;;;;5036058;28;20527;-55
2022/08/13 09:29:14;;;;;;;4.30;3.63;;;28.90;41.10;;;;;;5035827;28;20853;-58
2022/08/13 09:31:44;;;;;;;4.07;3.77;;;28.90;41.20;;;;;;5035640;28;20993;-56
2022/08/13 09:34:12;;;;;;;7.33;4.10;;;28.90;41.20;;;;;;5035410;28;20516;-58
2022/08/13 09:36:40;;;;;;;4.50;3.70;;;29.00;41.10;;;;;;5035784;28;20617;-56
2022/08/13 09:39:08;;;;;;;3.97;3.67;;;29.00;41.00;;;;;;5035485;28;20561;-58
2022/08/13 09:41:40;;;;;;;4.13;3.83;;;29.20;41.10;;;;;;5035186;28;20472;-56
2022/08/13 09:44:07;;;;;;;5.40;4.00;;;29.30;41.00;;;;;;5034762;28;20924;-57
2022/08/13 09:46:35;;;;;;;4.70;4.30;;;29.40;40.70;;;;;;5035291;28;20538;-58
2022/08/13 09:49:08;;;;;;;5.40;4.83;;;29.50;40.60;;;;;;5035007;28;20451;-57
2022/08/13 09:51:35;;;;;;;5.20;4.70;;;29.50;40.80;;;;;;5034904;28;21038;-57
2022/08/13 09:54:03;;;;;;;4.93;4.53;;;29.40;41.10;;;;;;5035403;28;20508;-57
2022/08/13 09:56:36;;;;;;;5.20;4.80;;;29.40;41.20;;;;;;5035029;28;20447;-57
2022/08/13 09:59:05;;;;;;;4.50;4.10;;;29.50;41.00;;;;;;5035024;28;20440;-58
2022/08/13 10:01:33;;;;;;;5.40;5.00;;;29.70;41.00;;;;;;5035109;28;20485;-57
2022/08/13 10:04:00;;;;;;;5.13;4.73;;;29.80;40.90;;;;;;5035326;28;20519;-58
2022/08/13 10:06:28;;;;;;;5.70;5.20;;;29.80;41.00;;;;;;5034891;28;20549;-58
2022/08/13 10:08:56;;;;;;;4.57;4.27;;;29.80;41.00;;;;;;5035253;28;20466;-58
2022/08/13 10:11:23;;;;;;;5.03;4.57;;;29.80;41.00;;;;;;5035076;28;20544;-58
2022/08/13 10:13:50;;;;;;;5.50;5.10;;;29.80;40.90;;;;;;5034694;28;20995;-58
2022/08/13 10:16:19;;;;;;;7.57;5.10;;;29.80;40.80;;;;;;5034990;28;20935;-58
2022/08/13 10:18:46;;;;;;;6.23;5.60;;;29.90;40.90;;;;;;5034921;28;20533;-57
2022/08/13 10:21:14;;;;;;;4.97;4.47;;;30.00;40.80;;;;;;5034489;28;20486;-58
2022/08/13 10:23:42;;;;;;;5.50;5.00;;;30.00;40.50;;;;;;5034910;28;20479;-58
2022/08/13 10:26:09;;;;;;;7.60;4.90;;;30.00;40.50;;;;;;5034438;28;21017;-57
2022/08/13 10:28:37;;;;;;;5.70;5.17;;;30.00;40.50;;;;;;5034599;28;20442;-57
2022/08/13 10:31:07;;;;;;;5.57;5.07;;;29.90;40.50;;;;;;5034236;28;20577;-58
2022/08/13 10:33:36;;;;;;;8.50;5.57;;;29.80;40.80;;;;;;5035147;28;20583;-59
2022/08/13 10:36:04;;;;;;;6.60;6.03;;;29.80;40.90;;;;;;5034876;28;20615;-57
2022/08/13 10:38:32;;;;;;;5.93;5.43;;;30.00;40.80;;;;;;5035150;28;20476;-58
2022/08/13 10:41:01;;;;;;;5.63;5.10;;;30.20;40.40;;;;;;5034945;28;20467;-57
2022/08/13 10:43:31;;;;;;;6.27;5.27;;;30.40;40.10;;;;;;5034351;28;20467;-56
2022/08/13 10:45:59;;;;;;;9.30;5.73;;;30.50;39.80;;;;;;5034388;28;20456;-56
2022/08/13 10:48:27;;;;;;;5.77;5.17;;;30.40;39.70;;;;;;5034305;28;20961;-58
2022/08/13 10:50:56;;;;;;;5.53;5.03;;;30.30;39.90;;;;;;5034305;28;20519;-56
2022/08/13 10:56:09;;;;;;;5.97;5.40;;;30.40;40.00;;;;;;5034509;28;20493;-57
2022/08/13 10:58:37;;;;;;;5.93;5.33;;;30.60;39.90;;;;;;5034483;28;20477;-58
2022/08/13 11:01:04;;;;;;;6.13;5.63;;;30.80;39.60;;;;;;5034050;28;20529;-59
2022/08/13 11:03:32;;;;;;;5.90;5.33;;;30.80;39.30;;;;;;5033746;28;20968;-58
2022/08/13 11:06:03;;;;;;;5.67;5.17;;;30.80;38.90;;;;;;5034174;28;20455;-58
2022/08/13 11:08:31;;;;;;;5.90;5.40;;;30.80;38.80;;;;;;5033841;28;20536;-57
2022/08/13 11:10:58;;;;;;;6.63;5.90;;;30.80;38.90;;;;;;5034038;28;20484;-58
2022/08/13 11:13:25;;;;;;;6.37;5.87;;;30.80;39.10;;;;;;5034093;28;20493;-57
2022/08/13 11:15:53;;;;;;;6.00;5.50;;;30.70;39.30;;;;;;5034143;28;20530;-57
2022/08/13 11:18:20;;;;;;;6.13;5.63;;;30.50;39.30;;;;;;5034439;28;20488;-57
2022/08/13 11:23:30;;;;;;;6.20;5.60;;;30.60;39.40;;;;;;5044456;28;20456;-58
2022/08/13 11:25:57;;;;;;;7.93;6.23;;;30.70;39.10;;;;;;5034859;28;20977;-56
2022/08/13 11:28:25;;;;;;;7.00;6.33;;;30.80;38.70;;;;;;5033074;28;20588;-57
2022/08/13 11:30:55;;;;;;;6.63;6.13;;;30.90;38.60;;;;;;5033147;28;20517;-58
2022/08/13 11:33:26;;;;;;;6.20;5.70;;;31.00;38.50;;;;;;5033314;28;20501;-58
2022/08/13 11:35:53;;;;;;;6.23;5.70;;;31.10;38.40;;;;;;5033004;28;20520;-57
2022/08/13 11:38:23;;;;;;;6.67;6.07;;;31.20;38.10;;;;;;5033458;28;20482;-57
2022/08/13 11:40:53;;;;;;;6.87;6.23;;;31.40;37.80;;;;;;5032928;28;20457;-57
2022/08/13 11:43:22;;;;;;;6.70;5.90;;;31.50;37.60;;;;;;5032964;28;20498;-59
2022/08/13 11:45:50;;;;;;;6.90;6.20;;;31.70;38.00;;;;;;5032470;28;20525;-58
2022/08/13 11:48:18;;;;;;;9.00;6.17;;;31.70;37.30;;;;;;5033187;28;20448;-58
2022/08/13 11:50:46;;;;;;;6.90;6.10;;;31.70;37.30;;;;;;5032909;28;20571;-58
2022/08/13 11:53:13;;;;;;;5.50;5.10;;;31.80;37.20;;;;;;5032879;28;20479;-58
2022/08/13 11:55:40;;;;;;;6.37;5.77;;;32.10;36.70;;;;;;5033426;28;20445;-58
2022/08/13 11:58:09;;;;;;;6.23;5.53;;;32.40;36.50;;;;;;5032924;28;20540;-58
2022/08/13 12:00:39;;;;;;;6.07;5.57;;;32.80;35.70;;;;;;5032676;28;20542;-57
2022/08/13 12:03:06;;;;;;;6.50;6.00;;;33.40;35.00;;;;;;5032356;28;20570;-58
2022/08/13 12:05:34;;;;;;;5.93;5.53;;;33.80;34.20;;;;;;5032749;28;20548;-57
2022/08/13 12:08:01;;;;;;;6.00;5.50;;;34.00;33.90;;;;;;5032379;28;20549;-57
2022/08/13 12:10:29;;;;;;;6.37;5.87;;;34.50;33.50;;;;;;5032654;28;21027;-58
2022/08/13 12:12:56;;;;;;;7.90;6.07;;;35.00;33.00;;;;;;5032523;28;20563;-59
2022/08/13 12:15:25;;;;;;;7.57;6.70;;;35.10;32.20;;;;;;5032936;28;20531;-58
2022/08/13 12:17:52;;;;;;;7.97;6.00;;;35.10;32.30;;;;;;5032589;28;20543;-58
2022/08/13 12:20:22;;;;;;;5.83;5.20;;;35.30;32.00;;;;;;5033243;28;20448;-56
2022/08/13 12:22:51;;;;;;;6.10;5.53;;;35.40;31.60;;;;;;5032553;28;20981;-58
2022/08/13 12:25:18;;;;;;;5.50;5.07;;;35.30;32.10;;;;;;5032784;28;20535;-56
2022/08/13 12:27:45;;;;;;;5.80;5.40;;;34.50;32.20;;;;;;5032534;28;20449;-58
2022/08/13 12:30:13;;;;;;;6.00;5.43;;;33.50;33.60;;;;;;5033633;28;20448;-57
2022/08/13 12:32:42;;;;;;;8.93;5.70;;;32.80;34.70;;;;;;5036380;28;20510;-58
2022/08/13 12:35:09;;;;;;;5.87;5.27;;;32.60;35.10;;;;;;5036281;28;20543;-57
2022/08/13 12:37:41;;;;;;;6.20;5.50;;;32.60;35.20;;;;;;5036478;28;20535;-57
2022/08/13 12:40:09;;;;;;;6.37;5.73;;;32.60;35.20;;;;;;5036441;28;20467;-57
2022/08/13 12:42:36;;;;;;;5.63;5.23;;;32.70;35.10;;;;;;5036394;28;20817;-58
2022/08/13 12:45:04;;;;;;;5.67;5.17;;;32.80;35.00;;;;;;5036489;28;20991;-58
2022/08/13 12:47:31;;;;;;;6.47;5.97;;;32.90;34.80;;;;;;5036107;28;20531;-56
2022/08/13 12:50:00;;;;;;;8.67;5.57;;;33.00;34.60;;;;;;5038064;28;20491;-57
2022/08/13 12:52:27;;;;;;;5.60;5.13;;;33.00;34.40;;;;;;5037355;28;21102;-58
2022/08/13 12:54:54;;;;;;;6.63;6.03;;;33.10;34.40;;;;;;5036006;28;20543;-58
2022/08/13 12:57:22;;;;;;;6.13;5.50;;;33.00;34.50;;;;;;5036299;28;20880;-58
2022/08/13 12:59:49;;;;;;;6.33;5.70;;;33.00;34.60;;;;;;5036108;28;20531;-58
2022/08/13 13:02:17;;;;;;;6.60;5.93;;;33.10;34.50;;;;;;5036211;28;20445;-59
2022/08/13 13:04:45;;;;;;;6.13;5.63;;;33.40;34.20;;;;;;5035728;28;20467;-58
2022/08/13 13:07:13;;;;;;;6.40;5.90;;;33.70;33.70;;;;;;5036266;28;20452;-58
2022/08/13 13:09:40;;;;;;;5.80;5.30;;;33.90;33.40;;;;;;5035776;28;20491;-58
2022/08/13 13:12:08;;;;;;;6.53;6.00;;;34.00;33.10;;;;;;5035568;28;20571;-58
2022/08/13 13:14:36;;;;;;;7.13;5.53;;;34.00;33.00;;;;;;5035923;28;20488;-58
2022/08/13 13:17:03;;;;;;;5.47;5.07;;;33.80;33.20;;;;;;5035867;28;20528;-58
2022/08/13 13:19:30;;;;;;;5.67;5.17;;;33.60;33.50;;;;;;5035975;28;20839;-58
2022/08/13 13:21:57;;;;;;;6.47;5.90;;;33.50;33.70;;;;;;5035615;28;20484;-58
2022/08/13 13:24:27;;;;;;;6.10;5.50;;;33.40;33.90;;;;;;5035539;28;20552;-58